Aeroporto :
LOGIN :

Iscrizione | Disclaimer

   EN    FR    IT 

 










Sommario :    VFR   VFR Marginale   IFR   IFR Intensivo   IFR Molto Intensivo
Visibilità : 
Base nubi : 
>= 8 km
>= 3000ft
5 / 8 km
1000 / 3000 ft
1500m / 5 km
500 / 1000 ft
800 / 1500m
200 / 500 ft
< 800m
< 200 ft
Simboli :   Temporali  Nebbia  Neve Forte  Precipitazioni Forti  Vento > 20 kt
SIGMETs :   Varie  Temporali  Ghiacco  Turbolenza  Onda orograficha  Ceneri Vulcaniche







- Altitudine del aeroporto : 278 ft
- Codice IATA : RJK


LDRI - Rijeka

ULTIMO METAR :
  • 261900Z 12005G16KT 030V200 CAVOK 11/M05 Q1022

METARs OBSOLETI :
  • 261830Z 09007KT 030V150 CAVOK 10/M04 Q1022
  • 261800Z VRB05KT CAVOK 11/M04 Q1021
  • 261730Z 10005KT 030V160 CAVOK 11/M04 Q1021
  • 261700Z VRB04KT CAVOK 11/M04 Q1021
  • 261630Z VRB03KT CAVOK 12/M05 Q1021

TAF TAF LDRI
Valido dal 26 a 18 ore il 27 a 18 ore UTC


261725Z 2618/2718 06010KT CAVOK TX12/2712Z TN08/2702Z
TEMPO 2618/2718 VRB10KT
PROB30
TEMPO 2618/2710 04015G25KT
Nessun NOTAM noto per questo aeroporto.
1 SIGMET conosciuto per la FIR Zagreb (LDZO) :
 
Turbolenza severa
LDZO SIGMET 6 VALID 261800/262200 LDZA
LDZO ZAGREB FIR SEV TURB FCST WI N4538 E01431 - N4531 E01314 - N4348 E01515 - N4205 E01828 - N4225 E01832 - N4538 E01431 SFC/6000FT STNR NC=



MetMap, La meteo Aeronautica in un colpo d'occhio ! - Copyright ORBIFLY Dicembre 2007 - Disclaimer

ORBIFLY MET'MAP TEAM :

Programmazione e sviluppo : Alexandra Zaïnal
Concezione e sviluppo : Baudouin d'Aumeries
Co-Programmazione e sviluppo : Marc-Olivier Méhu
Supporto tecnico e logistico : Manuel Goepfert
Aiuto per la traduzione : Arnaldo La Scala

Contatto : metmap@orbifly.com




FONTI E CREDITI :

   NOAA